Time;durP1;ratioP1;P1;durP2;ratioP2;P2;SDS_P1;SDS_P2;PMS_P1;PMS_P2;Temp;Humidity;BMP_temperature;BMP_pressure;BME280_temperature;BME280_humidity;BME280_pressure;Samples;Min_cycle;Max_cycle;Signal;HPM_P1;HPM_P2
2022/07/22 00:00:23;;;;;;;4.53;4.13;;;23.60;62.40;;;;;;4993842;28;20202;-58
2022/07/22 00:02:48;;;;;;;5.73;4.30;;;23.50;62.80;;;;;;5016940;28;20241;-57
2022/07/22 00:05:14;;;;;;;4.57;4.17;;;23.50;62.90;;;;;;4991396;28;20187;-57
2022/07/22 00:07:40;;;;;;;5.70;3.70;;;23.40;63.00;;;;;;5040394;28;20206;-57
2022/07/22 00:10:08;;;;;;;4.10;3.80;;;23.40;63.10;;;;;;5045937;28;20238;-57
2022/07/22 00:12:34;;;;;;;5.00;4.23;;;23.30;63.30;;;;;;5020493;28;20289;-57
2022/07/22 00:15:00;;;;;;;4.47;4.07;;;23.30;63.70;;;;;;5014295;28;20194;-58
2022/07/22 00:17:26;;;;;;;4.60;4.20;;;23.30;64.00;;;;;;4989530;28;20191;-58
2022/07/22 00:19:51;;;;;;;4.73;4.33;;;23.20;63.90;;;;;;4995025;28;20196;-58
2022/07/22 00:22:17;;;;;;;4.90;4.40;;;23.20;64.00;;;;;;5007698;28;20463;-58
2022/07/22 00:24:42;;;;;;;5.17;4.50;;;23.20;63.90;;;;;;5019024;28;20195;-58
2022/07/22 00:27:08;;;;;;;4.87;4.47;;;23.10;64.10;;;;;;4986873;28;20292;-58
2022/07/22 00:29:34;;;;;;;5.70;4.47;;;23.00;64.50;;;;;;4986583;28;20282;-58
2022/07/22 00:31:59;;;;;;;4.63;4.20;;;23.00;64.70;;;;;;4989058;28;20186;-58
2022/07/22 00:34:25;;;;;;;4.57;4.13;;;23.00;64.30;;;;;;4989628;28;20190;-58
2022/07/22 00:36:51;;;;;;;5.63;4.30;;;22.90;64.20;;;;;;4979317;28;20191;-57
2022/07/22 00:39:16;;;;;;;7.27;4.97;;;23.00;64.40;;;;;;5000009;28;20202;-58
2022/07/22 00:41:42;;;;;;;4.67;4.30;;;22.90;64.70;;;;;;5002428;28;20194;-58
2022/07/22 00:44:09;;;;;;;5.30;4.80;;;22.90;65.10;;;;;;5038728;28;20199;-58
2022/07/22 00:46:36;;;;;;;6.07;5.40;;;22.90;65.20;;;;;;5002184;28;20214;-58
2022/07/22 00:49:04;;;;;;;5.20;4.70;;;22.80;65.40;;;;;;5018807;28;20183;-58
2022/07/22 00:51:30;;;;;;;5.53;4.50;;;22.80;65.50;;;;;;5020512;28;20194;-58
2022/07/22 00:53:56;;;;;;;5.10;4.60;;;22.70;65.50;;;;;;5018007;28;20187;-58
2022/07/22 00:56:23;;;;;;;5.50;4.80;;;22.70;65.60;;;;;;5008789;28;20247;-58
2022/07/22 00:58:50;;;;;;;5.40;4.90;;;22.70;66.00;;;;;;4997128;28;20196;-58
2022/07/22 01:01:16;;;;;;;4.77;4.37;;;22.60;66.10;;;;;;5008031;28;20202;-58
2022/07/22 01:03:42;;;;;;;6.60;4.40;;;22.60;66.00;;;;;;5008930;28;20199;-58
2022/07/22 01:06:08;;;;;;;4.60;4.20;;;22.60;66.50;;;;;;5019296;28;20222;-58
2022/07/22 01:08:34;;;;;;;4.63;4.23;;;22.60;66.30;;;;;;5017477;28;20207;-58
2022/07/22 01:11:17;;;;;;;5.73;5.23;;;22.50;66.40;;;;;;4985029;28;20236;-57
2022/07/22 01:13:44;;;;;;;7.43;5.20;;;22.50;66.50;;;;;;5007645;28;20214;-58
2022/07/22 01:16:12;;;;;;;5.20;4.77;;;22.40;66.90;;;;;;5045373;28;20250;-58
2022/07/22 01:18:38;;;;;;;5.57;4.70;;;22.40;67.00;;;;;;5038118;28;20202;-58
2022/07/22 01:21:05;;;;;;;5.60;5.03;;;22.30;67.00;;;;;;5023548;28;20279;-58
2022/07/22 01:23:31;;;;;;;6.10;5.43;;;22.30;67.30;;;;;;5022652;28;20199;-58
2022/07/22 01:25:57;;;;;;;5.77;4.60;;;22.30;67.00;;;;;;5019529;28;21112;-58
2022/07/22 01:28:23;;;;;;;5.80;5.30;;;22.30;67.50;;;;;;5024895;28;20201;-58
2022/07/22 01:30:49;;;;;;;6.60;6.00;;;22.30;67.30;;;;;;5005569;28;20192;-58
2022/07/22 01:33:16;;;;;;;7.73;6.23;;;22.20;67.50;;;;;;5034771;28;20245;-58
2022/07/22 01:35:42;;;;;;;5.77;5.20;;;22.20;67.70;;;;;;5017456;28;20187;-58
2022/07/22 01:38:08;;;;;;;7.87;5.60;;;22.20;67.70;;;;;;5006021;28;20294;-58
2022/07/22 01:40:34;;;;;;;6.50;5.90;;;22.20;68.00;;;;;;5001538;28;20187;-58
2022/07/22 01:43:00;;;;;;;7.50;6.00;;;22.20;67.90;;;;;;5003294;28;20194;-58
2022/07/22 01:45:25;;;;;;;6.27;5.67;;;22.10;67.90;;;;;;5014649;28;20184;-58
2022/07/22 01:47:51;;;;;;;5.93;5.33;;;22.10;67.90;;;;;;5013269;28;20358;-58
2022/07/22 01:50:17;;;;;;;6.03;5.53;;;22.00;68.20;;;;;;5019115;28;20237;-58
2022/07/22 01:52:42;;;;;;;5.90;5.33;;;22.00;68.00;;;;;;5017823;28;20201;-58
2022/07/22 01:55:09;;;;;;;6.33;5.50;;;22.00;68.30;;;;;;5007937;28;20199;-58
2022/07/22 01:57:39;;;;;;;6.13;5.53;;;22.00;68.50;;;;;;5019955;28;20195;-58
2022/07/22 02:00:08;;;;;;;7.10;5.47;;;21.90;68.60;;;;;;5021320;28;20239;-58
2022/07/22 02:02:34;;;;;;;6.20;5.60;;;21.90;68.80;;;;;;5013668;28;20191;-58
2022/07/22 02:05:00;;;;;;;6.40;5.37;;;21.90;69.10;;;;;;5016244;28;20285;-58
2022/07/22 02:07:25;;;;;;;6.50;5.90;;;21.90;68.90;;;;;;5003463;28;20309;-58
2022/07/22 02:09:52;;;;;;;7.07;5.87;;;21.80;69.00;;;;;;5032581;28;20254;-58
2022/07/22 02:12:17;;;;;;;7.33;6.53;;;21.80;69.40;;;;;;4985624;28;20194;-58
2022/07/22 02:14:43;;;;;;;6.33;5.83;;;21.80;69.30;;;;;;5010093;28;20186;-57
2022/07/22 02:17:09;;;;;;;7.40;6.70;;;21.80;69.30;;;;;;5049691;28;20195;-58
2022/07/22 02:19:35;;;;;;;7.47;6.67;;;21.80;69.80;;;;;;4992905;28;20202;-58
2022/07/22 02:22:00;;;;;;;6.27;5.67;;;21.70;70.00;;;;;;4985341;28;20199;-58
2022/07/22 02:24:26;;;;;;;8.73;6.07;;;21.70;69.70;;;;;;5004245;28;20194;-58
2022/07/22 02:26:52;;;;;;;6.27;5.77;;;21.70;69.60;;;;;;4987022;28;20304;-58
2022/07/22 02:29:17;;;;;;;6.60;6.00;;;21.70;69.90;;;;;;5000571;28;20234;-58
2022/07/22 02:31:43;;;;;;;6.93;6.17;;;21.70;69.70;;;;;;4984470;28;20294;-58
2022/07/22 02:34:09;;;;;;;7.87;6.37;;;21.70;70.10;;;;;;4983857;28;20191;-58
2022/07/22 02:36:34;;;;;;;7.10;6.40;;;21.70;70.30;;;;;;4983981;28;20194;-58
2022/07/22 02:39:00;;;;;;;9.03;6.97;;;21.70;70.10;;;;;;5042734;28;20206;-58
2022/07/22 02:41:25;;;;;;;7.13;6.50;;;21.70;70.10;;;;;;4979325;28;20196;-58
2022/07/22 02:43:53;;;;;;;7.87;7.27;;;21.60;70.60;;;;;;4986229;28;20195;-58
2022/07/22 02:46:24;;;;;;;7.83;7.03;;;21.60;70.50;;;;;;5033725;28;20215;-58
2022/07/22 02:48:49;;;;;;;7.97;6.83;;;21.50;70.50;;;;;;5000234;28;20195;-58
2022/07/22 02:51:15;;;;;;;6.43;5.93;;;21.50;70.50;;;;;;4987992;28;20201;-58
2022/07/22 02:53:41;;;;;;;7.33;6.63;;;21.40;70.90;;;;;;5007937;28;20186;-58
2022/07/22 02:56:06;;;;;;;8.70;6.40;;;21.40;70.90;;;;;;4988234;28;20222;-58
2022/07/22 02:58:32;;;;;;;8.40;7.47;;;21.40;71.10;;;;;;5000433;28;20209;-58
2022/07/22 03:00:58;;;;;;;7.77;7.00;;;21.30;70.80;;;;;;5002599;28;20218;-58
2022/07/22 03:03:23;;;;;;;7.20;6.60;;;21.30;71.00;;;;;;4994043;28;20249;-58
2022/07/22 03:05:49;;;;;;;7.70;7.00;;;21.30;71.10;;;;;;4982363;28;20266;-58
2022/07/22 03:08:15;;;;;;;7.53;6.83;;;21.30;71.00;;;;;;4992160;28;20286;-58
2022/07/22 03:10:41;;;;;;;8.57;6.73;;;21.30;71.20;;;;;;5026585;28;20239;-58
2022/07/22 03:13:07;;;;;;;7.13;6.43;;;21.30;71.50;;;;;;5045262;28;20187;-58
2022/07/22 03:15:32;;;;;;;9.83;6.97;;;21.30;71.60;;;;;;5039613;28;20200;-58
2022/07/22 03:17:58;;;;;;;8.10;7.33;;;21.30;71.60;;;;;;5025761;28;20285;-58
2022/07/22 03:20:24;;;;;;;8.07;7.37;;;21.30;71.50;;;;;;5021269;28;20212;-58
2022/07/22 03:22:49;;;;;;;7.33;6.73;;;21.30;71.40;;;;;;5019552;28;20190;-58
2022/07/22 03:25:15;;;;;;;8.20;7.40;;;21.20;71.40;;;;;;5022173;28;20197;-58
2022/07/22 03:27:41;;;;;;;8.40;7.53;;;21.20;72.10;;;;;;5052588;28;20218;-58
2022/07/22 03:30:07;;;;;;;7.40;6.77;;;21.30;72.30;;;;;;5051190;28;20209;-58
2022/07/22 03:32:32;;;;;;;8.00;7.30;;;21.20;72.00;;;;;;5069395;28;20186;-58
2022/07/22 03:34:58;;;;;;;8.67;7.77;;;21.20;71.90;;;;;;5036197;28;20213;-58
2022/07/22 03:37:24;;;;;;;7.73;7.03;;;21.10;72.20;;;;;;5034708;28;20201;-58
2022/07/22 03:39:50;;;;;;;7.17;6.57;;;21.10;72.20;;;;;;5037327;28;20226;-58
2022/07/22 03:42:15;;;;;;;8.13;7.33;;;21.10;72.30;;;;;;5035939;28;20201;-58
2022/07/22 03:44:41;;;;;;;7.77;7.07;;;21.10;72.20;;;;;;5029218;28;20190;-58
2022/07/22 03:47:07;;;;;;;8.13;7.33;;;21.00;72.30;;;;;;5023460;28;20302;-58
2022/07/22 03:49:32;;;;;;;8.90;8.07;;;21.10;72.60;;;;;;5052572;28;20212;-58
2022/07/22 03:51:58;;;;;;;9.17;6.87;;;21.00;72.60;;;;;;5037768;28;20190;-58
2022/07/22 03:54:24;;;;;;;9.20;8.40;;;21.00;72.60;;;;;;5032927;28;20187;-58
2022/07/22 03:56:49;;;;;;;8.30;7.50;;;21.00;72.90;;;;;;5050066;28;20194;-58
2022/07/22 03:59:16;;;;;;;8.90;8.17;;;21.00;72.70;;;;;;5035559;28;20208;-58
2022/07/22 04:01:41;;;;;;;8.07;7.37;;;21.10;72.90;;;;;;5057776;28;20194;-58
2022/07/22 04:04:07;;;;;;;8.83;7.93;;;21.10;72.70;;;;;;5055922;28;20196;-58
2022/07/22 04:06:33;;;;;;;8.57;7.80;;;21.00;72.80;;;;;;5039414;28;20202;-58
2022/07/22 04:08:58;;;;;;;8.77;7.83;;;21.00;72.70;;;;;;5056261;28;20251;-58
2022/07/22 04:11:24;;;;;;;9.20;8.40;;;21.00;72.70;;;;;;5007462;28;20194;-58
2022/07/22 04:13:50;;;;;;;8.37;7.57;;;21.00;72.70;;;;;;5028849;28;20211;-58
2022/07/22 04:16:16;;;;;;;8.67;7.87;;;21.00;72.80;;;;;;5026351;28;20194;-58
2022/07/22 04:18:41;;;;;;;9.10;8.30;;;21.00;73.20;;;;;;4986584;28;20198;-58
2022/07/22 04:21:07;;;;;;;8.53;7.73;;;21.00;73.20;;;;;;4993088;28;20231;-58
2022/07/22 04:23:33;;;;;;;8.17;7.30;;;21.00;73.60;;;;;;4993434;28;20195;-58
2022/07/22 04:25:59;;;;;;;8.43;7.63;;;21.00;73.60;;;;;;5034099;28;20203;-58
2022/07/22 04:28:24;;;;;;;7.47;6.77;;;20.90;73.50;;;;;;5003016;28;20185;-58
2022/07/22 04:30:50;;;;;;;8.47;7.67;;;20.90;73.00;;;;;;4993206;28;20191;-58
2022/07/22 04:33:15;;;;;;;8.40;7.33;;;21.00;73.10;;;;;;5002646;28;20183;-58
2022/07/22 04:35:41;;;;;;;7.77;7.03;;;21.00;73.10;;;;;;5009493;28;20195;-58
2022/07/22 04:38:07;;;;;;;8.30;7.50;;;21.00;72.90;;;;;;4986808;28;20255;-58
2022/07/22 04:40:32;;;;;;;8.23;7.40;;;21.00;73.20;;;;;;4992857;28;20221;-58
2022/07/22 04:42:58;;;;;;;8.33;7.40;;;21.00;73.40;;;;;;4986054;28;20190;-58
2022/07/22 04:45:24;;;;;;;9.10;7.97;;;21.00;73.20;;;;;;5009753;28;20202;-58
2022/07/22 04:47:49;;;;;;;7.83;7.13;;;21.00;73.50;;;;;;4984580;28;20299;-58
2022/07/22 04:50:15;;;;;;;7.83;7.23;;;21.00;73.80;;;;;;4987023;28;20222;-58
2022/07/22 04:52:41;;;;;;;8.93;8.13;;;21.00;73.70;;;;;;5004080;28;20194;-58
2022/07/22 04:55:06;;;;;;;9.77;8.60;;;21.00;74.20;;;;;;4986187;28;20278;-58
2022/07/22 04:57:32;;;;;;;9.10;8.20;;;21.00;74.10;;;;;;5002496;28;20202;-58
2022/07/22 04:59:58;;;;;;;9.50;8.60;;;21.10;74.60;;;;;;4983411;28;20204;-58
2022/07/22 05:02:23;;;;;;;10.33;9.33;;;21.10;74.60;;;;;;4984201;28;20210;-58
2022/07/22 05:04:49;;;;;;;10.67;9.73;;;21.10;75.00;;;;;;4987802;28;20205;-58
2022/07/22 05:07:15;;;;;;;11.87;10.67;;;21.10;75.00;;;;;;4979250;28;20215;-58
2022/07/22 05:09:41;;;;;;;10.53;9.63;;;21.20;75.50;;;;;;5029159;28;20230;-58
2022/07/22 05:12:06;;;;;;;11.23;10.07;;;21.20;75.30;;;;;;5042269;28;20187;-58
2022/07/22 05:14:32;;;;;;;11.60;10.43;;;21.20;75.70;;;;;;5030019;28;20197;-58
2022/07/22 05:16:58;;;;;;;11.30;10.20;;;21.30;76.00;;;;;;5020712;28;20226;-58
2022/07/22 05:19:23;;;;;;;12.50;10.63;;;21.30;75.90;;;;;;5038324;28;20210;-57
2022/07/22 05:21:49;;;;;;;12.80;10.90;;;21.30;75.70;;;;;;5037397;28;20273;-58
2022/07/22 05:24:15;;;;;;;13.23;10.87;;;21.30;76.20;;;;;;5032533;28;20201;-58
2022/07/22 05:26:40;;;;;;;11.20;10.20;;;21.40;76.40;;;;;;5018709;28;20260;-58
2022/07/22 05:29:06;;;;;;;11.53;10.57;;;21.40;76.10;;;;;;5021789;28;20245;-58
2022/07/22 05:31:32;;;;;;;12.17;10.93;;;21.40;76.10;;;;;;5037035;28;20190;-58
2022/07/22 05:33:58;;;;;;;12.00;10.90;;;21.50;76.00;;;;;;5012694;28;20214;-58
2022/07/22 05:36:23;;;;;;;11.83;10.73;;;21.50;76.10;;;;;;5041454;28;20194;-58
2022/07/22 05:38:49;;;;;;;12.63;11.27;;;21.50;76.00;;;;;;5024868;28;20284;-58
2022/07/22 05:41:15;;;;;;;12.43;11.23;;;21.50;75.90;;;;;;5030202;28;20273;-58
2022/07/22 05:43:41;;;;;;;13.03;11.27;;;21.60;75.90;;;;;;5034112;28;20198;-58
2022/07/22 05:46:09;;;;;;;12.63;11.43;;;21.70;76.10;;;;;;5020733;28;20241;-59
2022/07/22 05:48:35;;;;;;;13.33;11.83;;;21.70;76.00;;;;;;5039522;28;20277;-58
2022/07/22 05:51:01;;;;;;;12.67;11.37;;;21.70;75.90;;;;;;5036955;28;20265;-58
2022/07/22 05:53:26;;;;;;;12.77;11.47;;;21.80;76.00;;;;;;5064438;28;20185;-58
2022/07/22 05:55:52;;;;;;;12.57;11.43;;;21.80;76.10;;;;;;5021909;28;20255;-58
2022/07/22 05:58:18;;;;;;;12.87;11.60;;;21.80;76.00;;;;;;5010582;28;20193;-58
2022/07/22 06:00:43;;;;;;;12.90;11.50;;;21.80;76.00;;;;;;5039701;28;20190;-58
2022/07/22 06:03:09;;;;;;;13.97;12.67;;;21.90;76.00;;;;;;5032136;28;20190;-58
2022/07/22 06:05:38;;;;;;;14.50;13.00;;;21.90;75.90;;;;;;5024510;28;20217;-58
2022/07/22 06:08:04;;;;;;;12.40;11.20;;;22.00;75.60;;;;;;5022343;28;20210;-57
2022/07/22 06:10:30;;;;;;;13.87;12.53;;;22.00;75.40;;;;;;5041108;28;20231;-57
2022/07/22 06:12:56;;;;;;;11.97;10.73;;;22.10;75.30;;;;;;5007669;28;20217;-57
2022/07/22 06:15:21;;;;;;;11.80;10.60;;;22.10;75.30;;;;;;5042687;28;20228;-57
2022/07/22 06:17:47;;;;;;;11.83;10.77;;;22.20;75.00;;;;;;5036743;28;20288;-57
2022/07/22 06:20:13;;;;;;;12.23;10.63;;;22.20;74.80;;;;;;5017735;28;20193;-57
2022/07/22 06:22:41;;;;;;;12.00;10.80;;;22.20;74.50;;;;;;5029637;28;20202;-57
2022/07/22 06:25:08;;;;;;;11.33;10.17;;;22.30;74.40;;;;;;5049750;28;20237;-57
2022/07/22 06:27:34;;;;;;;11.87;10.77;;;22.30;74.30;;;;;;5042660;28;20241;-57
2022/07/22 06:29:59;;;;;;;12.40;10.70;;;22.40;74.30;;;;;;5027388;28;20221;-57
2022/07/22 06:32:25;;;;;;;12.20;11.00;;;22.40;74.20;;;;;;5031795;28;20178;-57
2022/07/22 06:34:50;;;;;;;11.20;10.20;;;22.50;74.40;;;;;;5042135;28;20267;-57
2022/07/22 06:37:16;;;;;;;11.37;10.17;;;22.60;74.10;;;;;;5018474;28;20186;-57
2022/07/22 06:39:42;;;;;;;12.63;11.50;;;22.60;73.90;;;;;;5018999;28;20198;-57
2022/07/22 06:42:08;;;;;;;12.30;11.10;;;22.60;74.10;;;;;;5019127;28;20200;-57
2022/07/22 06:44:33;;;;;;;11.87;10.83;;;22.70;74.00;;;;;;5018316;28;20194;-57
2022/07/22 06:46:59;;;;;;;10.90;9.50;;;22.70;74.00;;;;;;5014110;28;20225;-57
2022/07/22 06:49:25;;;;;;;12.00;10.83;;;22.70;73.80;;;;;;5023245;28;20202;-57
2022/07/22 06:51:50;;;;;;;14.17;11.20;;;22.80;73.60;;;;;;5006534;28;20194;-57
2022/07/22 06:54:16;;;;;;;11.67;10.63;;;22.80;73.70;;;;;;5032791;28;20186;-57
2022/07/22 06:56:42;;;;;;;10.83;9.83;;;22.90;73.40;;;;;;5024600;28;20292;-57
2022/07/22 06:59:07;;;;;;;12.17;10.57;;;22.90;73.20;;;;;;5020366;28;20245;-57
2022/07/22 07:01:33;;;;;;;13.33;11.30;;;22.90;73.20;;;;;;5035206;28;20225;-57
2022/07/22 07:03:59;;;;;;;11.17;10.07;;;23.00;73.00;;;;;;5026901;28;20226;-57
2022/07/22 07:06:24;;;;;;;10.70;9.70;;;23.00;72.90;;;;;;5043478;28;20298;-57
2022/07/22 07:08:50;;;;;;;9.87;8.97;;;23.00;72.90;;;;;;5053035;28;20214;-57
2022/07/22 07:11:16;;;;;;;11.23;10.13;;;23.10;73.30;;;;;;5017534;28;20216;-57
2022/07/22 07:13:41;;;;;;;10.20;9.27;;;23.10;73.40;;;;;;5017816;28;20232;-57
2022/07/22 07:16:07;;;;;;;9.47;8.67;;;23.10;73.30;;;;;;5028735;28;20187;-58
2022/07/22 07:18:33;;;;;;;11.07;9.97;;;23.20;72.80;;;;;;5024480;28;20201;-58
2022/07/22 07:20:58;;;;;;;10.30;9.30;;;23.20;72.70;;;;;;5032404;28;20198;-58
2022/07/22 07:23:24;;;;;;;9.47;8.57;;;23.20;72.50;;;;;;5033009;28;20194;-58
2022/07/22 07:25:50;;;;;;;8.63;7.83;;;23.20;72.80;;;;;;5017930;28;20190;-59
2022/07/22 07:28:15;;;;;;;9.03;8.20;;;23.30;73.00;;;;;;5049676;28;20179;-58
2022/07/22 07:30:41;;;;;;;9.30;8.03;;;23.30;72.40;;;;;;5023826;28;20276;-58
2022/07/22 07:33:07;;;;;;;8.63;7.80;;;23.30;71.70;;;;;;5015582;28;20194;-58
2022/07/22 07:35:33;;;;;;;8.07;7.37;;;23.30;71.10;;;;;;5033843;28;20195;-58
2022/07/22 07:37:59;;;;;;;8.27;7.47;;;23.50;68.20;;;;;;5022582;28;20248;-58
2022/07/22 07:40:25;;;;;;;12.10;8.37;;;23.70;67.40;;;;;;5038042;28;20194;-58
2022/07/22 07:42:50;;;;;;;8.37;7.50;;;23.70;67.90;;;;;;5053080;28;20198;-58
2022/07/22 07:45:16;;;;;;;8.60;7.70;;;23.70;68.50;;;;;;5060610;28;20193;-59
2022/07/22 07:47:42;;;;;;;10.57;8.33;;;23.80;68.90;;;;;;5054194;28;20214;-59
2022/07/22 07:50:08;;;;;;;8.53;7.60;;;23.80;69.00;;;;;;5034134;28;20187;-59
2022/07/22 07:52:43;;;;;;;8.23;7.43;;;23.80;68.20;;;;;;5064662;28;20190;-59
2022/07/22 07:55:09;;;;;;;7.30;6.60;;;23.90;68.40;;;;;;5046565;28;20256;-59
2022/07/22 07:57:36;;;;;;;9.03;8.23;;;23.90;68.70;;;;;;5049874;28;20201;-59
2022/07/22 08:00:06;;;;;;;7.77;6.97;;;24.00;67.80;;;;;;5043528;28;20186;-59
2022/07/22 08:02:31;;;;;;;7.30;6.70;;;24.00;67.10;;;;;;5082534;28;20190;-58
2022/07/22 08:04:57;;;;;;;8.17;6.87;;;24.10;66.70;;;;;;5041421;28;20187;-59
2022/07/22 08:07:23;;;;;;;7.73;6.83;;;24.20;66.80;;;;;;5019003;28;20211;-58
2022/07/22 08:09:48;;;;;;;8.03;7.27;;;24.20;67.10;;;;;;5042831;28;20248;-59
2022/07/22 08:12:14;;;;;;;7.60;6.90;;;24.30;63.00;;;;;;5041687;28;20223;-59
2022/07/22 08:14:40;;;;;;;8.03;7.23;;;24.40;63.50;;;;;;5015748;28;20252;-59
2022/07/22 08:17:05;;;;;;;8.07;6.97;;;24.50;60.40;;;;;;5043441;28;20189;-59
2022/07/22 08:19:31;;;;;;;8.27;6.83;;;24.60;60.10;;;;;;5028077;28;20190;-59
2022/07/22 08:21:57;;;;;;;8.07;7.23;;;24.60;61.00;;;;;;5038576;28;20216;-59
2022/07/22 08:24:22;;;;;;;9.33;7.90;;;24.70;61.20;;;;;;5039158;28;20194;-59
2022/07/22 08:26:48;;;;;;;8.23;7.43;;;24.70;61.30;;;;;;5053406;28;20210;-59
2022/07/22 08:29:13;;;;;;;7.77;7.07;;;24.80;61.20;;;;;;5038882;28;20198;-59
2022/07/22 08:31:39;;;;;;;8.00;7.30;;;24.80;60.80;;;;;;5043662;28;20187;-59
2022/07/22 08:34:05;;;;;;;10.13;7.37;;;25.00;59.20;;;;;;5020478;28;20247;-59
2022/07/22 08:36:32;;;;;;;7.73;7.07;;;25.00;60.40;;;;;;5060699;28;20235;-59
2022/07/22 08:38:57;;;;;;;8.13;6.90;;;25.10;61.50;;;;;;5039038;28;20285;-59
2022/07/22 08:41:24;;;;;;;8.27;7.47;;;25.00;62.90;;;;;;5021219;28;20285;-59
2022/07/22 08:43:51;;;;;;;8.13;7.37;;;25.10;63.50;;;;;;5035647;28;20260;-58
2022/07/22 08:46:16;;;;;;;9.67;7.63;;;25.10;63.30;;;;;;5059983;28;20245;-59
2022/07/22 08:48:42;;;;;;;8.13;7.43;;;25.20;63.00;;;;;;5023988;28;20214;-59
2022/07/22 08:51:08;;;;;;;8.43;7.67;;;25.20;63.10;;;;;;5039818;28;20193;-59
2022/07/22 08:53:33;;;;;;;13.07;8.13;;;25.30;62.50;;;;;;5039274;28;20186;-59
2022/07/22 08:55:59;;;;;;;7.40;6.70;;;25.30;62.10;;;;;;5037514;28;20244;-59
2022/07/22 08:58:26;;;;;;;7.73;6.93;;;25.40;62.80;;;;;;5054306;28;20324;-59
2022/07/22 09:01:13;;;;;;;12.17;8.23;;;25.50;60.10;;;;;;5054024;28;20178;-59
2022/07/22 09:03:56;;;;;;;7.80;6.53;;;25.70;60.40;;;;;;5052830;28;20194;-59
2022/07/22 09:06:24;;;;;;;8.40;7.30;;;25.70;61.20;;;;;;5035539;28;20209;-59
2022/07/22 09:08:51;;;;;;;7.50;6.90;;;25.70;62.10;;;;;;5055543;28;20230;-59
2022/07/22 09:11:19;;;;;;;8.30;7.60;;;25.70;63.50;;;;;;5022399;28;20197;-59
2022/07/22 09:13:45;;;;;;;8.60;7.80;;;25.70;62.40;;;;;;5022185;28;20194;-59
2022/07/22 09:16:11;;;;;;;8.03;7.27;;;25.80;61.90;;;;;;5023743;28;20218;-59
2022/07/22 09:18:48;;;;;;;9.00;6.50;;;25.80;61.40;;;;;;4996342;28;20223;-59
2022/07/22 09:21:14;;;;;;;8.00;7.30;;;25.90;63.00;;;;;;5019600;28;20182;-59
2022/07/22 09:23:41;;;;;;;7.83;7.07;;;26.00;63.50;;;;;;4984101;28;20268;-59
2022/07/22 09:26:07;;;;;;;9.70;7.53;;;26.00;62.50;;;;;;5002213;28;20188;-59
2022/07/22 09:28:33;;;;;;;10.43;7.60;;;26.20;61.50;;;;;;4984114;28;20191;-59
2022/07/22 09:30:59;;;;;;;8.53;7.33;;;26.30;59.20;;;;;;5000315;28;20254;-59
2022/07/22 09:33:25;;;;;;;8.07;7.27;;;26.30;60.20;;;;;;5015206;28;20199;-59
2022/07/22 09:35:52;;;;;;;8.13;7.47;;;26.40;61.30;;;;;;5018317;28;20186;-59
2022/07/22 09:38:27;;;;;;;8.50;7.70;;;26.40;59.50;;;;;;5007609;28;20245;-59
2022/07/22 09:40:53;;;;;;;8.47;7.67;;;26.40;58.40;;;;;;5004250;28;20190;-59
2022/07/22 09:43:20;;;;;;;8.90;8.10;;;26.60;56.30;;;;;;5002897;28;20263;-59
2022/07/22 09:45:53;;;;;;;10.13;7.03;;;26.60;58.00;;;;;;5002515;28;20182;-59
2022/07/22 09:48:21;;;;;;;7.80;7.00;;;26.80;56.50;;;;;;5014558;28;20216;-59
2022/07/22 09:50:48;;;;;;;9.50;7.97;;;26.80;56.50;;;;;;4984475;28;20199;-59
2022/07/22 09:53:15;;;;;;;7.87;7.17;;;26.90;57.20;;;;;;4991346;28;20187;-59
2022/07/22 09:55:41;;;;;;;8.93;7.20;;;26.90;58.10;;;;;;5014211;28;20187;-58
2022/07/22 09:58:07;;;;;;;9.20;7.87;;;26.90;56.90;;;;;;4980085;28;20282;-58
2022/07/22 10:00:34;;;;;;;7.53;6.83;;;27.00;58.60;;;;;;5015057;28;20355;-58
2022/07/22 10:03:03;;;;;;;7.40;6.70;;;27.00;59.40;;;;;;5034472;28;20188;-59
2022/07/22 10:05:32;;;;;;;8.40;6.87;;;27.10;60.00;;;;;;5005970;28;20195;-59
2022/07/22 10:07:59;;;;;;;7.47;6.73;;;27.10;61.30;;;;;;5009822;28;20219;-58
2022/07/22 10:10:27;;;;;;;7.53;6.83;;;27.20;56.60;;;;;;5044186;28;20226;-58
2022/07/22 10:12:59;;;;;;;6.93;6.33;;;27.40;54.70;;;;;;5051867;28;20186;-58
2022/07/22 10:15:26;;;;;;;9.80;7.40;;;27.40;58.00;;;;;;5063492;28;20194;-59
2022/07/22 10:17:54;;;;;;;7.17;6.40;;;27.50;56.00;;;;;;5030326;28;20251;-59
2022/07/22 10:20:23;;;;;;;7.87;6.70;;;27.50;55.30;;;;;;5056603;28;20182;-59
2022/07/22 10:23:06;;;;;;;6.90;6.30;;;27.60;53.50;;;;;;5051574;28;20190;-58
2022/07/22 10:25:53;;;;;;;9.87;6.67;;;27.70;51.60;;;;;;5039662;28;20216;-58
2022/07/22 10:28:27;;;;;;;7.10;6.47;;;27.80;49.90;;;;;;5050175;28;20272;-59
2022/07/22 10:31:14;;;;;;;6.73;6.13;;;27.90;52.20;;;;;;5054811;28;20187;-59
2022/07/22 10:33:40;;;;;;;7.43;6.70;;;27.90;52.40;;;;;;5023999;28;20200;-58
2022/07/22 10:36:08;;;;;;;7.47;6.73;;;27.90;52.80;;;;;;5035769;28;20198;-58
2022/07/22 10:38:33;;;;;;;6.80;6.20;;;27.90;52.50;;;;;;5045906;28;20186;-58
2022/07/22 10:41:07;;;;;;;6.70;6.00;;;28.00;52.20;;;;;;5036714;28;20190;-58
2022/07/22 10:43:42;;;;;;;9.07;6.20;;;28.10;51.70;;;;;;5034750;28;20202;-58
2022/07/22 10:46:09;;;;;;;6.67;6.03;;;28.20;50.80;;;;;;5056122;28;20186;-58
2022/07/22 10:48:37;;;;;;;7.13;6.37;;;28.30;51.90;;;;;;5046288;28;20186;-58
2022/07/22 10:51:17;;;;;;;7.33;6.33;;;28.40;52.80;;;;;;5050949;28;20194;-59
2022/07/22 10:53:56;;;;;;;7.10;6.40;;;28.50;50.40;;;;;;5074013;28;20178;-59
2022/07/22 10:56:35;;;;;;;10.17;6.10;;;28.60;47.90;;;;;;5062551;28;20182;-58
2022/07/22 10:59:07;;;;;;;6.90;6.23;;;28.80;49.90;;;;;;5039525;28;20202;-58
2022/07/22 11:01:33;;;;;;;6.43;5.93;;;28.80;47.20;;;;;;5050139;28;20194;-58
2022/07/22 11:04:09;;;;;;;7.83;6.37;;;28.90;46.20;;;;;;5039539;28;20198;-58
2022/07/22 11:06:35;;;;;;;6.20;5.70;;;28.80;48.80;;;;;;5039896;28;20240;-58
2022/07/22 11:09:04;;;;;;;7.80;5.97;;;28.80;50.00;;;;;;5038636;28;20193;-59
2022/07/22 11:11:41;;;;;;;10.03;5.90;;;28.90;50.70;;;;;;5021836;28;20190;-58
2022/07/22 11:14:33;;;;;;;6.13;5.63;;;28.90;49.90;;;;;;5026369;28;20276;-59
2022/07/22 11:17:10;;;;;;;6.90;6.20;;;28.90;50.10;;;;;;5002601;28;20198;-58
2022/07/22 11:19:37;;;;;;;6.67;6.07;;;29.10;48.10;;;;;;5019964;28;20186;-58
2022/07/22 11:22:08;;;;;;;6.30;5.70;;;29.20;48.90;;;;;;5002629;28;20194;-58
2022/07/22 11:24:35;;;;;;;6.40;5.80;;;29.20;50.30;;;;;;5020712;28;20195;-58
2022/07/22 11:27:01;;;;;;;7.17;5.93;;;29.20;50.30;;;;;;5018856;28;20233;-58
2022/07/22 11:29:29;;;;;;;7.10;6.50;;;29.30;51.90;;;;;;5002708;28;20197;-58
2022/07/22 11:31:57;;;;;;;6.93;6.40;;;29.40;48.30;;;;;;5018333;28;20190;-58
2022/07/22 11:34:23;;;;;;;7.57;6.70;;;29.60;48.50;;;;;;5022622;28;20187;-59
2022/07/22 11:36:50;;;;;;;7.30;6.40;;;29.60;47.40;;;;;;4997084;28;20203;-58
2022/07/22 11:39:20;;;;;;;7.40;5.90;;;29.50;47.80;;;;;;5032878;28;20195;-58
2022/07/22 11:41:46;;;;;;;5.77;5.27;;;29.60;50.00;;;;;;5017930;28;20232;-58
2022/07/22 11:44:12;;;;;;;7.03;6.40;;;29.80;48.20;;;;;;5002015;28;20191;-58
2022/07/22 11:46:39;;;;;;;6.10;5.60;;;29.90;47.50;;;;;;5000599;28;20242;-58
2022/07/22 11:49:06;;;;;;;6.17;5.33;;;29.90;47.70;;;;;;5008564;28;20179;-58
2022/07/22 11:51:33;;;;;;;6.07;5.47;;;30.00;50.70;;;;;;5001595;28;20198;-58
2022/07/22 11:54:00;;;;;;;6.17;5.20;;;30.10;51.40;;;;;;5017280;28;20283;-58
2022/07/22 11:56:26;;;;;;;6.23;5.73;;;30.20;44.70;;;;;;5018310;28;20198;-58
2022/07/22 11:58:54;;;;;;;8.57;6.40;;;30.30;48.30;;;;;;5000885;28;20204;-58
2022/07/22 12:01:22;;;;;;;6.37;5.30;;;30.50;48.10;;;;;;5000882;28;20191;-58
2022/07/22 12:03:52;;;;;;;7.60;5.53;;;30.60;47.60;;;;;;5049964;28;20194;-58
2022/07/22 12:06:20;;;;;;;6.77;5.27;;;30.80;49.60;;;;;;5004926;28;20198;-58
2022/07/22 12:08:49;;;;;;;9.37;5.90;;;31.00;46.10;;;;;;5005806;28;20202;-58
2022/07/22 12:11:16;;;;;;;6.03;5.50;;;31.20;42.70;;;;;;5016611;28;20245;-58
2022/07/22 12:13:44;;;;;;;6.37;5.77;;;31.40;42.10;;;;;;5018656;28;20191;-58
2022/07/22 12:16:30;;;;;;;6.20;5.60;;;31.70;41.40;;;;;;5019213;28;20175;-58
2022/07/22 12:19:06;;;;;;;7.20;6.33;;;32.10;45.80;;;;;;5021785;28;20236;-58
2022/07/22 12:21:35;;;;;;;7.30;5.50;;;32.70;42.70;;;;;;5005082;28;20183;-58
2022/07/22 12:24:04;;;;;;;6.50;5.90;;;33.20;41.80;;;;;;5022217;28;20286;-58
2022/07/22 12:26:57;;;;;;;5.70;5.20;;;33.80;42.40;;;;;;5014398;28;20199;-58
2022/07/22 12:29:27;;;;;;;5.77;4.60;;;34.50;41.80;;;;;;5008782;28;20249;-58
2022/07/22 12:31:55;;;;;;;6.00;5.50;;;35.20;41.00;;;;;;5028019;28;20186;-59
2022/07/22 12:34:55;;;;;;;6.37;5.20;;;35.80;39.40;;;;;;5015486;28;20274;-59
2022/07/22 12:37:23;;;;;;;5.40;4.90;;;36.60;36.80;;;;;;5023481;28;20178;-59
2022/07/22 12:39:59;;;;;;;5.63;5.23;;;37.20;35.90;;;;;;5026567;28;20186;-59
2022/07/22 12:42:31;;;;;;;6.17;5.40;;;37.70;36.00;;;;;;5014947;28;20249;-59